Impacts TAF Board INFO
FOR SITUATIONAL AWARENESS. NOT TO BE USED FOR FLIGHT PLANNING PURPOSES.
IDs:

KTPA - Tampa Intl Arpt, FL, US

Issued at 0311 UTC 22 Apr 2018
Updated at 0418 UTC 22 Apr 2018
Potential Impact None Slight Moderate High
Time<<22/17Z 22/18Z 22/19Z 22/20Z 22/21Z 22/22Z 22/23Z 23/00Z 23/01Z 23/02Z 23/03Z 23/04Z 23/05Z>>
Type PRVL PRVL PRVL PRVL PRVL PRVL PRVL PRVL PRVL PRVL PRVL PRVL PRVL
VIS >6 >6 >6 >6 >6 >6 >6 >6 >6 >6 >6 >6 >6
CIG 100 100 50 50 50 50 50 50 60 60 60 60 60
Cover BKN BKN BKN BKN BKN BKN BKN BKN BKN BKN BKN BKN BKN
FltCat VFR VFR VFR VFR VFR VFR VFR VFR VFR VFR VFR VFR VFR
WX -- -- -- -- -- -- -- -- -- -- -- -- --
WDir 110 110 220 220 220 220 220 220 VRB VRB VRB VRB VRB
WSpd 8 8 9 9 9 9 9 9 6 6 6 6 6
WGst -- -- -- -- -- -- -- -- -- -- -- -- --

Raw TAF
KTPA 220311Z 2203/2306 11008KT P6SM FEW025 SCT040 SCT250
  FM220800 09006KT P6SM BKN015
  FM221400 11008KT P6SM SCT020 BKN100
  FM221900 22009KT P6SM SCT030 BKN050
  FM230100 VRB06KT P6SM SCT025 BKN060


METAR Board
Radar Display
Forecast Discussion

FOR SITUATIONAL AWARENESS. NOT TO BE USED FOR FLIGHT PLANNING PURPOSES.